Time;durP1;ratioP1;P1;durP2;ratioP2;P2;SDS_P1;SDS_P2;PMS_P1;PMS_P2;Temp;Humidity;BMP_temperature;BMP_pressure;BME280_temperature;BME280_humidity;BME280_pressure;Samples;Min_cycle;Max_cycle;Signal;HPM_P1;HPM_P2
2022/11/05 00:10:57;;;;;;;9.17;8.27;;;9.70;99.90;;;;;;5036165;28;20713;-71
2022/11/05 00:19:06;;;;;;;8.10;7.27;;;9.50;99.90;;;;;;5036415;28;20234;-72
2022/11/05 00:27:01;;;;;;;10.17;7.53;;;9.40;99.90;;;;;;5029492;28;20221;-72
2022/11/05 00:29:27;;;;;;;7.97;5.97;;;9.40;99.90;;;;;;5026607;28;20229;-69
2022/11/05 00:31:52;;;;;;;7.90;5.50;;;9.40;99.90;;;;;;5029961;28;20214;-70
2022/11/05 00:34:18;;;;;;;8.70;6.30;;;9.40;99.90;;;;;;5028354;28;20239;-69
2022/11/05 00:36:43;;;;;;;7.50;5.50;;;9.40;99.90;;;;;;5030260;28;20765;-71
2022/11/05 00:39:09;;;;;;;8.53;6.20;;;9.40;99.90;;;;;;5032431;28;20268;-71
2022/11/05 00:41:34;;;;;;;9.90;6.50;;;9.40;99.90;;;;;;5039772;28;20202;-71
2022/11/05 00:46:43;;;;;;;7.67;6.90;;;9.40;99.90;;;;;;5039628;28;20747;-71
2022/11/05 00:52:54;;;;;;;8.37;7.63;;;9.30;99.90;;;;;;5039765;28;20276;-73
2022/11/05 00:54:39;;;;;;;7.27;6.40;;;9.30;99.90;;;;;;5037552;28;20595;-68
2022/11/05 00:57:04;;;;;;;9.63;7.33;;;9.30;99.90;;;;;;5039344;28;20314;-71
2022/11/05 00:59:30;;;;;;;10.03;6.77;;;9.30;99.90;;;;;;5039316;28;20299;-70
2022/11/05 01:01:55;;;;;;;9.60;6.90;;;9.30;99.90;;;;;;5039439;28;20291;-71
2022/11/05 01:04:21;;;;;;;12.43;6.57;;;9.30;99.90;;;;;;5041043;28;20190;-71
2022/11/05 01:06:46;;;;;;;11.17;7.20;;;9.30;99.90;;;;;;5035867;28;20298;-71
2022/11/05 01:09:12;;;;;;;10.70;7.20;;;9.30;99.90;;;;;;5038131;28;20204;-70
2022/11/05 01:11:39;;;;;;;10.27;7.83;;;9.30;99.90;;;;;;5041404;28;20203;-70
2022/11/05 01:14:14;;;;;;;10.27;7.43;;;9.30;99.90;;;;;;5035228;28;20212;-70
2022/11/05 01:16:40;;;;;;;8.97;7.97;;;9.30;99.90;;;;;;5038655;28;20251;-70
2022/11/05 01:19:08;;;;;;;7.67;6.63;;;9.20;99.90;;;;;;5039858;28;20222;-70
2022/11/05 01:21:33;;;;;;;9.53;7.30;;;9.20;99.90;;;;;;5038838;28;20200;-69
2022/11/05 01:23:59;;;;;;;9.47;6.63;;;9.20;99.90;;;;;;5037693;28;20190;-69
2022/11/05 01:26:26;;;;;;;9.03;6.93;;;9.20;99.90;;;;;;5038967;28;20209;-70
2022/11/05 01:28:55;;;;;;;7.93;7.13;;;9.20;99.90;;;;;;5037683;28;20211;-69
2022/11/05 01:31:22;;;;;;;9.60;7.17;;;9.20;99.90;;;;;;5035720;28;20265;-69
2022/11/05 01:33:48;;;;;;;8.03;7.23;;;9.10;99.90;;;;;;5037542;28;20574;-69
2022/11/05 01:36:14;;;;;;;8.30;7.37;;;9.10;99.90;;;;;;5038829;28;20219;-69
2022/11/05 01:38:39;;;;;;;11.67;7.87;;;9.10;99.90;;;;;;5038922;28;20251;-69
2022/11/05 01:41:05;;;;;;;9.60;7.83;;;9.00;99.90;;;;;;5037535;28;20238;-69
2022/11/05 01:43:47;;;;;;;8.53;7.50;;;9.00;99.90;;;;;;5038225;28;20245;-69
2022/11/05 01:46:14;;;;;;;8.00;7.20;;;9.00;99.90;;;;;;5037858;28;20215;-69
2022/11/05 01:48:40;;;;;;;13.20;9.23;;;9.00;99.90;;;;;;5038650;28;20913;-69
2022/11/05 01:51:12;;;;;;;12.40;8.80;;;9.00;99.90;;;;;;5038747;28;20198;-69
2022/11/05 01:53:43;;;;;;;11.30;8.10;;;9.00;99.90;;;;;;5034629;28;20219;-69
2022/11/05 01:56:21;;;;;;;9.80;7.83;;;8.90;99.90;;;;;;5038998;28;20701;-71
2022/11/05 01:59:00;;;;;;;10.93;8.37;;;8.90;99.90;;;;;;5028134;28;20211;-71
2022/11/05 02:01:26;;;;;;;10.23;7.90;;;8.90;99.90;;;;;;5024046;28;20237;-72
2022/11/05 02:03:58;;;;;;;10.07;7.53;;;8.90;99.90;;;;;;5026972;28;20236;-72
2022/11/05 02:06:26;;;;;;;10.83;8.80;;;8.80;99.90;;;;;;5028768;28;20737;-71
2022/11/05 02:09:01;;;;;;;16.63;9.63;;;8.90;99.90;;;;;;5028621;28;20294;-72
2022/11/05 02:11:26;;;;;;;12.27;9.57;;;8.80;99.90;;;;;;5025970;28;20198;-72
2022/11/05 02:13:52;;;;;;;12.17;8.67;;;8.80;99.90;;;;;;5028210;28;20232;-72
2022/11/05 02:16:38;;;;;;;10.60;8.80;;;8.80;99.90;;;;;;5027989;28;20215;-72
2022/11/05 02:19:27;;;;;;;10.23;9.03;;;8.80;99.90;;;;;;5026779;28;20227;-72
2022/11/05 02:22:30;;;;;;;11.20;9.30;;;8.80;99.90;;;;;;5035990;28;20574;-72
2022/11/05 02:25:23;;;;;;;12.77;8.47;;;8.80;99.90;;;;;;5037246;28;20202;-74
2022/11/05 02:28:31;;;;;;;12.07;9.60;;;8.80;99.90;;;;;;5038048;28;20244;-73
2022/11/05 02:31:13;;;;;;;12.37;9.60;;;8.80;99.90;;;;;;5025271;28;20209;-73
2022/11/05 02:34:03;;;;;;;11.83;9.63;;;8.80;99.90;;;;;;5037835;28;20753;-73
2022/11/05 02:36:54;;;;;;;12.13;9.77;;;8.80;99.90;;;;;;5038997;28;20706;-73
2022/11/05 02:39:37;;;;;;;14.83;8.87;;;8.80;99.90;;;;;;5032775;28;20188;-73
2022/11/05 02:42:32;;;;;;;11.83;9.00;;;8.80;99.90;;;;;;5037437;28;20205;-73
2022/11/05 02:45:06;;;;;;;12.70;8.30;;;8.80;99.90;;;;;;5037750;28;20204;-72
2022/11/05 02:47:45;;;;;;;14.70;9.10;;;8.80;99.90;;;;;;5029349;28;20317;-73
2022/11/05 02:50:23;;;;;;;11.50;8.60;;;8.70;99.90;;;;;;5034143;28;20679;-73
2022/11/05 02:53:02;;;;;;;11.90;8.83;;;8.70;99.90;;;;;;5037593;28;20286;-72
2022/11/05 02:55:51;;;;;;;10.20;7.07;;;8.70;99.90;;;;;;5035563;28;20267;-72
2022/11/05 02:58:17;;;;;;;16.40;8.60;;;8.70;99.90;;;;;;5037018;28;20220;-72
2022/11/05 03:00:45;;;;;;;11.87;8.00;;;8.70;99.90;;;;;;5041864;28;20676;-72
2022/11/05 03:03:32;;;;;;;10.67;7.23;;;8.60;99.90;;;;;;5032713;28;20692;-72
2022/11/05 03:06:26;;;;;;;13.87;7.60;;;8.60;99.90;;;;;;5036535;28;20678;-72
2022/11/05 03:09:15;;;;;;;11.73;8.17;;;8.60;99.90;;;;;;5032237;28;20203;-72
2022/11/05 03:12:00;;;;;;;11.50;7.73;;;8.70;99.90;;;;;;5037876;28;20211;-72
2022/11/05 03:14:50;;;;;;;12.93;8.60;;;8.60;99.90;;;;;;5028954;28;20256;-73
2022/11/05 03:17:44;;;;;;;14.70;7.97;;;8.60;99.90;;;;;;5036596;28;20230;-72
2022/11/05 03:20:15;;;;;;;10.80;7.80;;;8.70;99.90;;;;;;5037067;28;20199;-72
2022/11/05 03:22:46;;;;;;;14.63;8.27;;;8.60;99.90;;;;;;5039687;28;20251;-72
2022/11/05 03:25:16;;;;;;;9.27;7.20;;;8.60;99.90;;;;;;5035094;28;20202;-74
2022/11/05 03:27:46;;;;;;;12.13;7.23;;;8.60;99.90;;;;;;5033074;28;20221;-73
2022/11/05 03:30:14;;;;;;;11.80;8.27;;;8.60;99.90;;;;;;5036387;28;20211;-73
2022/11/05 03:32:47;;;;;;;11.20;7.97;;;8.60;99.90;;;;;;5030813;28;20200;-73
2022/11/05 03:35:27;;;;;;;11.30;7.20;;;8.60;99.90;;;;;;5037658;28;20203;-73
2022/11/05 03:37:59;;;;;;;11.13;6.97;;;8.60;99.90;;;;;;5040527;28;20213;-72
2022/11/05 03:40:26;;;;;;;7.70;6.90;;;8.50;99.90;;;;;;5031390;28;20681;-72
2022/11/05 03:42:56;;;;;;;12.13;7.00;;;8.50;99.90;;;;;;5041054;28;20579;-73
2022/11/05 03:45:29;;;;;;;11.13;7.37;;;8.50;99.90;;;;;;5029160;28;20563;-72
2022/11/05 03:47:58;;;;;;;10.33;6.90;;;8.50;99.90;;;;;;5021341;28;20578;-72
2022/11/05 03:50:32;;;;;;;12.73;6.60;;;8.40;99.90;;;;;;5026253;28;20216;-72
2022/11/05 03:53:03;;;;;;;7.67;6.13;;;8.40;99.90;;;;;;5026002;28;20204;-72
2022/11/05 03:55:37;;;;;;;12.57;7.43;;;8.40;99.90;;;;;;5025852;28;20212;-72
2022/11/05 03:58:04;;;;;;;9.37;7.03;;;8.40;99.90;;;;;;5029116;28;20545;-72
2022/11/05 04:00:30;;;;;;;10.27;7.17;;;8.40;99.90;;;;;;5026061;28;20246;-71
2022/11/05 04:02:56;;;;;;;11.73;6.97;;;8.40;99.90;;;;;;5023925;28;20690;-71
2022/11/05 04:05:21;;;;;;;8.63;5.70;;;8.30;99.90;;;;;;5026047;28;20238;-71
2022/11/05 04:13:24;;;;;;;10.10;7.00;;;8.30;99.90;;;;;;5035124;28;20202;-71
2022/11/05 04:18:38;;;;;;;13.53;6.20;;;8.30;99.90;;;;;;5021176;28;20273;-72
2022/11/05 04:24:08;;;;;;;8.40;5.93;;;8.30;99.90;;;;;;5026393;28;20240;-72
2022/11/05 04:26:42;;;;;;;8.60;5.77;;;8.20;99.90;;;;;;5025905;28;20203;-71
2022/11/05 04:31:53;;;;;;;7.03;6.03;;;8.20;99.90;;;;;;5025413;28;20684;-72
2022/11/05 04:34:20;;;;;;;9.43;6.67;;;8.20;99.90;;;;;;5025277;28;20333;-70
2022/11/05 04:36:48;;;;;;;9.57;6.47;;;8.20;99.90;;;;;;5025666;28;20220;-72
2022/11/05 04:39:15;;;;;;;9.87;6.10;;;8.20;99.90;;;;;;5025659;28;20705;-72
2022/11/05 04:41:41;;;;;;;8.10;6.67;;;8.20;99.90;;;;;;5022455;28;20211;-72
2022/11/05 04:44:07;;;;;;;10.13;6.23;;;8.20;99.90;;;;;;5025379;28;20292;-73
2022/11/05 04:46:33;;;;;;;11.07;6.50;;;8.20;99.90;;;;;;5025979;28;20201;-72
2022/11/05 04:48:59;;;;;;;8.17;6.27;;;8.10;99.90;;;;;;5024702;28;20210;-71
2022/11/05 04:51:28;;;;;;;9.80;6.83;;;8.10;99.90;;;;;;5035901;28;20202;-72
2022/11/05 04:53:54;;;;;;;12.27;6.40;;;8.10;99.90;;;;;;5026739;28;20203;-72
2022/11/05 04:56:23;;;;;;;14.83;6.07;;;8.10;99.90;;;;;;5026003;28;20210;-72
2022/11/05 04:58:49;;;;;;;10.30;6.47;;;8.10;99.90;;;;;;5024310;28;20266;-70
2022/11/05 05:01:17;;;;;;;10.33;6.20;;;8.00;99.90;;;;;;5024900;28;20831;-74
2022/11/05 05:03:45;;;;;;;10.77;7.17;;;8.00;99.90;;;;;;5024975;28;20944;-74
2022/11/05 05:06:10;;;;;;;10.30;6.50;;;8.00;99.90;;;;;;5023565;28;20201;-74
2022/11/05 05:08:36;;;;;;;11.50;6.70;;;8.00;99.90;;;;;;5024558;28;20194;-72
2022/11/05 05:11:04;;;;;;;7.20;5.67;;;7.90;99.90;;;;;;5025631;28;20637;-72
2022/11/05 05:13:30;;;;;;;12.13;7.10;;;7.90;99.90;;;;;;5025449;28;20255;-71
2022/11/05 05:15:55;;;;;;;9.27;6.00;;;7.90;99.90;;;;;;5029537;28;20624;-71
2022/11/05 05:18:21;;;;;;;11.53;6.67;;;7.80;99.90;;;;;;5029521;28;20211;-72
2022/11/05 05:23:30;;;;;;;12.60;6.93;;;7.80;99.90;;;;;;5032182;28;20252;-72
2022/11/05 05:25:59;;;;;;;11.53;7.33;;;7.70;99.90;;;;;;5029782;28;20549;-73
2022/11/05 05:28:26;;;;;;;10.87;6.60;;;7.70;99.90;;;;;;5023352;28;20286;-72
2022/11/05 05:30:51;;;;;;;15.17;7.00;;;7.70;99.90;;;;;;5039378;28;20293;-71
2022/11/05 05:33:17;;;;;;;9.23;6.00;;;7.60;99.90;;;;;;5038840;28;20291;-71
2022/11/05 05:35:42;;;;;;;10.97;5.97;;;7.60;99.90;;;;;;5030393;28;20204;-71
2022/11/05 05:38:08;;;;;;;8.23;5.70;;;7.60;99.90;;;;;;5029518;28;20195;-71
2022/11/05 05:40:33;;;;;;;9.23;5.67;;;7.60;99.90;;;;;;5028460;28;20295;-71
2022/11/05 05:42:59;;;;;;;10.03;5.53;;;7.60;99.90;;;;;;5028013;28;20325;-72
2022/11/05 05:45:24;;;;;;;7.93;5.57;;;7.60;99.90;;;;;;5028376;28;20194;-70
2022/11/05 05:47:50;;;;;;;10.20;6.17;;;7.60;99.90;;;;;;5028670;28;20202;-74
2022/11/05 05:50:15;;;;;;;9.20;6.60;;;7.60;99.90;;;;;;5031186;28;20195;-74
2022/11/05 05:52:41;;;;;;;10.87;5.97;;;7.60;99.90;;;;;;5028918;28;20187;-73
2022/11/05 05:55:06;;;;;;;9.57;5.87;;;7.60;99.90;;;;;;5021452;28;20211;-72
2022/11/05 05:57:33;;;;;;;19.20;7.07;;;7.60;99.90;;;;;;5028583;28;20224;-73
2022/11/05 06:00:00;;;;;;;15.43;6.67;;;7.60;99.90;;;;;;5028681;28;20199;-74
2022/11/05 06:02:26;;;;;;;7.77;6.07;;;7.60;99.90;;;;;;5028481;28;20252;-74
2022/11/05 06:04:51;;;;;;;8.97;6.20;;;7.60;99.90;;;;;;5028689;28;20612;-73
2022/11/05 06:07:16;;;;;;;9.60;6.13;;;7.60;99.90;;;;;;5029131;28;20205;-73
2022/11/05 06:09:42;;;;;;;11.77;6.13;;;7.60;99.90;;;;;;5036464;28;20384;-72
2022/11/05 06:12:07;;;;;;;9.00;5.93;;;7.50;99.90;;;;;;5027402;28;20260;-72
2022/11/05 06:14:33;;;;;;;8.77;5.63;;;7.50;99.90;;;;;;5028068;28;20206;-72
2022/11/05 06:16:58;;;;;;;10.73;6.03;;;7.50;99.90;;;;;;5028006;28;20682;-72
2022/11/05 06:19:24;;;;;;;9.37;5.40;;;7.50;99.90;;;;;;5027826;28;20219;-73
2022/11/05 06:21:49;;;;;;;10.43;6.53;;;7.50;99.90;;;;;;5030598;28;20264;-72
2022/11/05 06:24:15;;;;;;;14.33;6.53;;;7.50;99.90;;;;;;5025311;28;20199;-73
2022/11/05 06:26:42;;;;;;;7.27;5.57;;;7.50;99.90;;;;;;5035769;28;20210;-73
2022/11/05 06:29:09;;;;;;;10.60;6.40;;;7.50;99.90;;;;;;5039253;28;20237;-73
2022/11/05 06:31:34;;;;;;;10.97;5.60;;;7.50;99.90;;;;;;5034179;28;20227;-73
2022/11/05 06:34:00;;;;;;;9.43;5.53;;;7.50;99.90;;;;;;5037596;28;20818;-73
2022/11/05 06:36:25;;;;;;;8.33;5.97;;;7.50;99.90;;;;;;5035736;28;20321;-73
2022/11/05 06:38:51;;;;;;;10.00;5.67;;;7.50;99.90;;;;;;5037586;28;20285;-74
2022/11/05 06:41:16;;;;;;;5.73;5.03;;;7.50;99.90;;;;;;5037704;28;20225;-73
2022/11/05 06:43:42;;;;;;;11.33;5.47;;;7.50;99.90;;;;;;5037593;28;20332;-74
2022/11/05 06:46:09;;;;;;;7.83;4.50;;;7.50;99.90;;;;;;5038739;28;20198;-72
2022/11/05 06:48:35;;;;;;;12.17;4.77;;;7.50;99.90;;;;;;5032414;28;20203;-72
2022/11/05 06:51:00;;;;;;;11.77;6.43;;;7.50;99.90;;;;;;5038588;28;20206;-72
2022/11/05 06:53:26;;;;;;;6.80;4.43;;;7.60;99.90;;;;;;5035673;28;20207;-72
2022/11/05 06:55:51;;;;;;;9.07;5.30;;;7.60;99.90;;;;;;5035521;28;20262;-72
2022/11/05 06:58:17;;;;;;;10.70;4.83;;;7.60;99.90;;;;;;5037216;28;20198;-72
2022/11/05 07:00:42;;;;;;;6.67;4.93;;;7.60;99.90;;;;;;5035765;28;20207;-72
2022/11/05 07:03:09;;;;;;;9.30;4.87;;;7.60;99.90;;;;;;5036315;28;20194;-72
2022/11/05 07:05:38;;;;;;;12.53;4.53;;;7.60;99.90;;;;;;5040084;28;20198;-72
2022/11/05 07:08:04;;;;;;;6.07;5.27;;;7.70;99.90;;;;;;5031174;28;20625;-72
2022/11/05 07:10:30;;;;;;;9.60;4.30;;;7.70;99.90;;;;;;5033589;28;20286;-70
2022/11/05 07:12:55;;;;;;;10.50;5.27;;;7.70;99.90;;;;;;5039891;28;20203;-73
2022/11/05 07:15:21;;;;;;;13.50;5.00;;;7.70;99.90;;;;;;5033237;28;20199;-72
2022/11/05 07:17:46;;;;;;;11.80;5.43;;;7.70;99.90;;;;;;5035464;28;20224;-74
2022/11/05 07:20:12;;;;;;;12.47;5.43;;;7.80;99.90;;;;;;5035831;28;20332;-72
2022/11/05 07:22:37;;;;;;;9.13;4.23;;;7.80;99.90;;;;;;5037683;28;20203;-72
2022/11/05 07:25:04;;;;;;;9.03;4.20;;;7.80;99.90;;;;;;5035200;28;20196;-71
2022/11/05 07:27:30;;;;;;;8.23;4.17;;;7.70;99.90;;;;;;5035850;28;20262;-73
2022/11/05 07:29:55;;;;;;;9.80;4.93;;;7.70;99.90;;;;;;5038984;28;20318;-74
2022/11/05 07:32:21;;;;;;;7.20;4.20;;;7.70;99.90;;;;;;5036755;28;20215;-73
2022/11/05 07:34:46;;;;;;;5.47;4.30;;;7.70;99.90;;;;;;5033487;28;20214;-73
2022/11/05 07:37:12;;;;;;;8.87;4.70;;;7.70;99.90;;;;;;5040006;28;20221;-73
2022/11/05 07:39:37;;;;;;;5.23;4.23;;;7.60;99.90;;;;;;5029866;28;20286;-72
2022/11/05 07:42:03;;;;;;;10.77;5.07;;;7.60;99.90;;;;;;5036814;28;20665;-72
2022/11/05 07:44:28;;;;;;;11.33;5.07;;;7.60;99.90;;;;;;5036399;28;20199;-72
2022/11/05 07:46:54;;;;;;;9.23;5.00;;;7.60;99.90;;;;;;5036446;28;20850;-73
2022/11/05 07:49:20;;;;;;;10.20;4.90;;;7.60;99.90;;;;;;5036244;28;20207;-73
2022/11/05 07:51:45;;;;;;;7.93;5.50;;;7.60;99.90;;;;;;5032898;28;20232;-72
2022/11/05 07:54:11;;;;;;;8.03;4.93;;;7.50;99.90;;;;;;5026956;28;20246;-73
2022/11/05 07:56:37;;;;;;;9.83;5.43;;;7.50;99.90;;;;;;5035381;28;20227;-70
2022/11/05 07:59:03;;;;;;;9.60;5.70;;;7.50;99.90;;;;;;5035655;28;20246;-70
2022/11/05 08:01:28;;;;;;;10.97;5.53;;;7.50;99.90;;;;;;5036350;28;20226;-70
2022/11/05 08:03:54;;;;;;;9.10;5.83;;;7.50;99.90;;;;;;5035409;28;20297;-73
2022/11/05 08:06:19;;;;;;;10.10;5.00;;;7.50;99.90;;;;;;5034475;28;20596;-72
2022/11/05 08:08:45;;;;;;;14.37;5.93;;;7.50;99.90;;;;;;5038401;28;20245;-72
2022/11/05 08:11:11;;;;;;;10.50;5.73;;;7.60;99.90;;;;;;5035910;28;20207;-72
2022/11/05 08:13:37;;;;;;;10.43;5.40;;;7.60;99.90;;;;;;5036064;28;20198;-72
2022/11/05 08:16:03;;;;;;;11.13;6.23;;;7.70;99.90;;;;;;5036031;28;20206;-71
2022/11/05 08:18:30;;;;;;;7.53;5.80;;;7.80;99.90;;;;;;5034981;28;20205;-72
2022/11/05 08:20:58;;;;;;;10.40;5.37;;;7.90;99.90;;;;;;5026815;28;20294;-72
2022/11/05 08:23:24;;;;;;;8.60;5.50;;;8.00;99.90;;;;;;5036473;28;20203;-72
2022/11/05 08:25:50;;;;;;;9.87;6.30;;;8.10;99.90;;;;;;5038084;28;20695;-72
2022/11/05 08:28:15;;;;;;;11.60;5.73;;;8.10;99.90;;;;;;5033031;28;20293;-72
2022/11/05 08:30:41;;;;;;;10.10;6.10;;;8.10;99.90;;;;;;5035884;28;20272;-72
2022/11/05 08:33:09;;;;;;;15.47;6.33;;;8.10;99.90;;;;;;5034497;28;20195;-72
2022/11/05 08:35:36;;;;;;;10.53;5.63;;;8.10;99.90;;;;;;5035906;28;20203;-70
2022/11/05 08:38:03;;;;;;;12.07;4.77;;;8.20;99.90;;;;;;5035841;28;20203;-70
2022/11/05 08:40:30;;;;;;;8.70;5.33;;;8.30;99.90;;;;;;5035867;28;20314;-71
2022/11/05 08:42:57;;;;;;;7.20;5.03;;;8.40;99.90;;;;;;5032171;28;20200;-70
2022/11/05 08:45:23;;;;;;;12.43;5.57;;;8.40;99.90;;;;;;5035120;28;20203;-71
2022/11/05 08:47:49;;;;;;;10.23;5.40;;;8.50;99.90;;;;;;5035190;28;20258;-70
2022/11/05 08:50:15;;;;;;;8.37;5.37;;;8.60;99.90;;;;;;5037131;28;20210;-64
2022/11/05 08:52:41;;;;;;;8.67;5.73;;;8.70;99.90;;;;;;5039147;28;20295;-68
2022/11/05 08:55:06;;;;;;;13.90;5.67;;;8.70;99.90;;;;;;5041083;28;20305;-69
2022/11/05 08:57:32;;;;;;;9.63;5.30;;;8.80;99.90;;;;;;5035808;28;20218;-70
2022/11/05 08:59:57;;;;;;;10.40;4.77;;;8.90;99.90;;;;;;5038969;28;20204;-71
2022/11/05 09:02:23;;;;;;;8.37;4.60;;;8.90;99.90;;;;;;5039261;28;20714;-70
2022/11/05 09:04:48;;;;;;;6.80;4.23;;;9.00;99.90;;;;;;5041256;28;20564;-73
2022/11/05 09:07:14;;;;;;;7.90;4.57;;;9.10;99.90;;;;;;5032451;28;20205;-72
2022/11/05 09:09:39;;;;;;;7.00;4.20;;;9.10;99.90;;;;;;5028819;28;20282;-74
2022/11/05 09:12:05;;;;;;;8.30;4.77;;;9.20;99.90;;;;;;5025141;28;20545;-73
2022/11/05 09:14:30;;;;;;;8.50;4.33;;;9.20;99.90;;;;;;5037865;28;20693;-72
2022/11/05 09:16:56;;;;;;;9.77;4.50;;;9.20;99.90;;;;;;5026814;28;20212;-72
2022/11/05 09:19:21;;;;;;;13.43;4.30;;;9.30;99.90;;;;;;5028841;28;20739;-72
2022/11/05 09:21:47;;;;;;;12.10;4.57;;;9.40;99.90;;;;;;5029043;28;20292;-70
2022/11/05 09:24:13;;;;;;;8.67;4.20;;;9.40;99.90;;;;;;5033346;28;20203;-69
2022/11/05 09:26:38;;;;;;;7.87;4.73;;;9.50;99.90;;;;;;5022975;28;20299;-72
2022/11/05 09:29:03;;;;;;;9.77;4.40;;;9.50;99.90;;;;;;5029679;28;20214;-71
2022/11/05 09:31:29;;;;;;;11.40;3.93;;;9.50;99.90;;;;;;5028875;28;20191;-71
2022/11/05 09:33:54;;;;;;;9.30;4.23;;;9.60;99.90;;;;;;5030848;28;20355;-71
2022/11/05 09:36:20;;;;;;;8.57;3.87;;;9.60;99.90;;;;;;5027712;28;20217;-71
2022/11/05 09:38:45;;;;;;;8.40;4.33;;;9.70;99.90;;;;;;5029243;28;20189;-72
2022/11/05 09:41:30;;;;;;;11.20;4.07;;;9.70;99.90;;;;;;5033374;28;20206;-74
2022/11/05 09:44:02;;;;;;;6.80;3.50;;;9.70;99.90;;;;;;5026403;28;20568;-68
2022/11/05 09:46:41;;;;;;;14.33;4.60;;;9.80;99.90;;;;;;5033743;28;20236;-71
2022/11/05 09:49:18;;;;;;;10.33;4.10;;;9.80;99.90;;;;;;5029291;28;20735;-71
2022/11/05 09:51:44;;;;;;;8.27;3.67;;;9.90;99.90;;;;;;5023263;28;20705;-70
2022/11/05 09:54:11;;;;;;;12.27;4.40;;;9.90;99.90;;;;;;5027847;28;20235;-70
2022/11/05 09:56:40;;;;;;;8.27;4.03;;;10.00;99.90;;;;;;5028178;28;20240;-69
2022/11/05 09:59:18;;;;;;;6.73;3.17;;;10.00;99.90;;;;;;5027823;28;20214;-67
2022/11/05 10:01:44;;;;;;;9.77;3.70;;;10.10;99.90;;;;;;5024485;28;20208;-69
2022/11/05 10:04:23;;;;;;;10.03;4.03;;;10.10;99.90;;;;;;5029597;28;20256;-71
2022/11/05 10:06:54;;;;;;;9.57;3.60;;;10.20;99.90;;;;;;5027923;28;20209;-73
2022/11/05 10:09:44;;;;;;;8.23;4.30;;;10.30;99.90;;;;;;5034995;28;20269;-70
2022/11/05 10:12:24;;;;;;;8.50;3.63;;;10.30;99.90;;;;;;5034824;28;20661;-70
2022/11/05 10:15:08;;;;;;;9.80;3.83;;;10.30;99.90;;;;;;5036142;28;20212;-70
2022/11/05 10:17:36;;;;;;;6.87;2.90;;;10.40;99.90;;;;;;5041253;28;20219;-70
2022/11/05 10:20:19;;;;;;;11.03;3.80;;;10.40;99.90;;;;;;5034350;28;20408;-71
2022/11/05 10:22:45;;;;;;;10.87;3.67;;;10.50;99.90;;;;;;5034963;28;20599;-71
2022/11/05 10:25:19;;;;;;;9.53;2.80;;;10.70;99.90;;;;;;5038089;28;20204;-70
2022/11/05 10:27:53;;;;;;;10.17;3.77;;;10.80;99.90;;;;;;5037553;28;20224;-68
2022/11/05 10:30:20;;;;;;;12.60;3.30;;;10.90;99.90;;;;;;5038374;28;20590;-75
2022/11/05 10:32:47;;;;;;;7.00;2.57;;;10.90;99.90;;;;;;5037354;28;20213;-74
2022/11/05 10:35:17;;;;;;;10.83;3.30;;;11.00;99.90;;;;;;5035482;28;20210;-68
2022/11/05 10:37:46;;;;;;;5.03;3.13;;;11.10;99.90;;;;;;5036161;28;20277;-70
2022/11/05 10:40:35;;;;;;;8.87;3.13;;;11.20;99.90;;;;;;5037091;28;20206;-69
2022/11/05 10:43:15;;;;;;;10.20;3.30;;;11.30;99.90;;;;;;5037398;28;20206;-73
2022/11/05 10:46:19;;;;;;;7.93;3.40;;;11.40;99.90;;;;;;5036330;28;20198;-71
2022/11/05 10:49:16;;;;;;;7.57;2.50;;;11.50;99.90;;;;;;5037225;28;20206;-71
2022/11/05 10:51:42;;;;;;;11.10;3.37;;;11.60;99.90;;;;;;5037187;28;20205;-72
2022/11/05 10:54:15;;;;;;;4.70;2.10;;;11.60;99.90;;;;;;5037044;28;20211;-72
2022/11/05 10:56:41;;;;;;;5.40;2.90;;;11.70;99.90;;;;;;5034421;28;20218;-69
2022/11/05 10:59:22;;;;;;;8.27;2.70;;;11.70;99.90;;;;;;5037140;28;20229;-71
2022/11/05 11:01:56;;;;;;;8.77;3.80;;;11.90;99.90;;;;;;5035650;28;20210;-70
2022/11/05 11:04:24;;;;;;;5.57;2.90;;;12.00;99.90;;;;;;5036458;28;20202;-70
2022/11/05 11:06:53;;;;;;;3.03;2.07;;;12.20;99.90;;;;;;5033942;28;20472;-69
2022/11/05 11:09:29;;;;;;;6.57;2.23;;;12.40;99.90;;;;;;5038101;28;20236;-71
2022/11/05 11:12:00;;;;;;;6.03;2.60;;;12.60;99.90;;;;;;5036276;28;20206;-71
2022/11/05 11:14:26;;;;;;;4.63;1.73;;;12.70;99.90;;;;;;5035543;28;20236;-71
2022/11/05 11:16:56;;;;;;;9.53;1.93;;;12.80;99.90;;;;;;5036562;28;20297;-70
2022/11/05 11:19:29;;;;;;;4.93;2.20;;;13.00;99.90;;;;;;5034628;28;20201;-70
2022/11/05 11:22:12;;;;;;;6.47;2.20;;;13.10;99.90;;;;;;5036185;28;20198;-70
2022/11/05 11:24:41;;;;;;;11.03;2.13;;;13.10;99.90;;;;;;5034201;28;20195;-86
2022/11/05 11:27:14;;;;;;;5.67;2.60;;;13.20;99.90;;;;;;5037045;28;20195;-71
2022/11/05 11:29:43;;;;;;;8.33;2.63;;;13.40;99.90;;;;;;5036304;28;20249;-71
2022/11/05 11:32:18;;;;;;;12.00;2.37;;;13.50;99.90;;;;;;5033165;28;20568;-70
2022/11/05 11:34:47;;;;;;;4.50;1.50;;;13.50;99.90;;;;;;5036287;28;20676;-71
2022/11/05 11:37:21;;;;;;;6.33;1.97;;;13.60;99.90;;;;;;5037465;28;20233;-71
2022/11/05 11:39:59;;;;;;;7.00;2.10;;;13.70;99.90;;;;;;5026775;28;20197;-71
2022/11/05 11:42:31;;;;;;;5.33;1.93;;;13.70;99.90;;;;;;5036648;28;20213;-70
2022/11/05 11:45:02;;;;;;;6.63;2.07;;;13.70;99.90;;;;;;5034399;28;20563;-69
2022/11/05 11:47:28;;;;;;;3.40;2.40;;;13.80;99.90;;;;;;5036463;28;20212;-73
2022/11/05 11:49:56;;;;;;;8.10;2.57;;;13.80;99.90;;;;;;5036255;28;20210;-72
2022/11/05 11:52:34;;;;;;;5.67;1.80;;;14.00;99.90;;;;;;5036604;28;20197;-72
2022/11/05 11:55:20;;;;;;;3.23;1.60;;;14.10;99.90;;;;;;5035727;28;20318;-70
2022/11/05 11:57:52;;;;;;;3.40;1.60;;;14.30;99.90;;;;;;5035777;28;20222;-72
2022/11/05 12:00:19;;;;;;;4.50;2.17;;;14.80;99.90;;;;;;5036011;28;20273;-73
2022/11/05 12:03:03;;;;;;;3.57;1.60;;;15.00;99.90;;;;;;5035730;28;20566;-70
2022/11/05 12:05:54;;;;;;;6.40;1.83;;;15.40;99.90;;;;;;5039087;28;21606;-74
2022/11/05 12:08:52;;;;;;;6.03;1.67;;;15.50;99.90;;;;;;5034710;28;20775;-72
2022/11/05 12:11:52;;;;;;;6.03;1.77;;;15.70;99.90;;;;;;5033222;28;20195;-70
2022/11/05 12:14:58;;;;;;;3.37;1.57;;;15.60;99.90;;;;;;5035959;28;20194;-70
2022/11/05 12:17:49;;;;;;;3.37;1.20;;;15.80;99.90;;;;;;5035467;28;20214;-70
2022/11/05 12:20:49;;;;;;;4.27;1.40;;;15.80;99.50;;;;;;5035920;28;20559;-70
2022/11/05 12:23:25;;;;;;;4.20;1.20;;;15.20;99.90;;;;;;5034638;28;20373;-68
2022/11/05 12:26:08;;;;;;;8.10;1.70;;;14.70;99.90;;;;;;5037526;28;20206;-69
2022/11/05 12:28:56;;;;;;;5.97;1.80;;;14.30;99.90;;;;;;5038717;28;20249;-69
2022/11/05 12:31:36;;;;;;;4.57;1.63;;;14.20;99.90;;;;;;5039222;28;20194;-75
2022/11/05 12:34:43;;;;;;;3.83;1.53;;;13.80;99.90;;;;;;5041879;28;20224;-74
2022/11/05 12:37:25;;;;;;;4.70;1.63;;;13.60;99.90;;;;;;5026203;28;21050;-73
2022/11/05 12:40:04;;;;;;;4.83;1.03;;;13.30;99.90;;;;;;5036096;28;20621;-74
2022/11/05 12:43:00;;;;;;;3.30;1.73;;;13.50;99.90;;;;;;5037985;28;20765;-77
2022/11/05 12:45:42;;;;;;;4.80;1.50;;;13.70;99.90;;;;;;5037481;28;20274;-76
2022/11/05 12:48:16;;;;;;;3.57;1.63;;;13.70;99.90;;;;;;5040904;28;20207;-76
2022/11/05 12:51:04;;;;;;;2.57;1.30;;;13.40;99.90;;;;;;5037470;28;20198;-77
2022/11/05 12:54:02;;;;;;;5.67;1.83;;;13.10;99.90;;;;;;5043109;28;20803;-76
2022/11/05 12:56:45;;;;;;;5.43;2.10;;;12.80;99.90;;;;;;5038753;28;20265;-79
2022/11/05 12:59:23;;;;;;;4.00;1.90;;;12.60;99.90;;;;;;5041834;28;20283;-75
2022/11/05 13:01:55;;;;;;;6.80;1.90;;;12.40;99.90;;;;;;5033551;28;20293;-74
2022/11/05 13:04:39;;;;;;;4.17;1.53;;;12.30;99.90;;;;;;5041080;28;20206;-73
2022/11/05 13:07:09;;;;;;;3.90;1.37;;;12.20;99.90;;;;;;5029255;28;20670;-69
2022/11/05 13:10:02;;;;;;;6.90;1.70;;;12.20;99.90;;;;;;5031339;28;20202;-72
2022/11/05 13:12:30;;;;;;;2.83;1.80;;;12.10;99.90;;;;;;5014504;28;20569;-73
2022/11/05 13:15:00;;;;;;;4.07;1.63;;;12.20;99.90;;;;;;5031947;28;20203;-68
2022/11/05 13:17:33;;;;;;;2.87;1.23;;;12.30;99.90;;;;;;5026449;28;20343;-68
2022/11/05 13:20:25;;;;;;;9.07;1.97;;;12.20;99.90;;;;;;5025181;28;20901;-71
2022/11/05 13:23:09;;;;;;;6.50;2.57;;;12.10;99.90;;;;;;5024556;28;20234;-67
2022/11/05 13:25:39;;;;;;;6.17;2.23;;;12.00;99.90;;;;;;5030899;28;20216;-70
2022/11/05 13:28:24;;;;;;;5.00;2.13;;;11.90;99.90;;;;;;5034383;28;20208;-72
2022/11/05 13:30:53;;;;;;;3.97;1.37;;;11.80;99.90;;;;;;5028033;28;20549;-68
2022/11/05 13:33:35;;;;;;;5.67;1.60;;;11.90;99.90;;;;;;5027176;28;20711;-71
2022/11/05 13:39:08;;;;;;;7.83;1.73;;;12.00;99.90;;;;;;5028364;28;20244;-72
2022/11/05 13:41:52;;;;;;;9.00;2.03;;;11.90;99.90;;;;;;5030343;28;20639;-71
2022/11/05 13:44:47;;;;;;;5.83;2.00;;;12.00;99.90;;;;;;5024573;28;20197;-71
2022/11/05 13:47:23;;;;;;;3.03;2.03;;;12.00;99.90;;;;;;5027988;28;20208;-70
2022/11/05 13:50:31;;;;;;;5.57;2.00;;;12.10;99.90;;;;;;5027834;28;20212;-71
2022/11/05 13:53:28;;;;;;;7.43;1.93;;;12.20;99.90;;;;;;5027719;28;20608;-73
2022/11/05 13:56:36;;;;;;;5.83;2.13;;;12.30;99.90;;;;;;5024542;28;20302;-71
2022/11/05 13:59:26;;;;;;;3.07;1.60;;;12.40;99.90;;;;;;5015825;28;20263;-68
2022/11/05 14:01:58;;;;;;;5.17;1.77;;;12.40;99.90;;;;;;5026470;28;20205;-72